M I D A S
Marine Information and Data Acquisition System
Tripno 1267 of the Zeeleeuw from 2007-05-04 07:37:53 to 2007-05-04 14:16:29
Back to CruiseResearch ActivitiesStationsMapUnderway DataData graphs

EquipmentUnitsComment
TimeDGPSUTC
LatitudeDGPSDM.mWGS84
LongitudeDGPSDM.mWGS84
TemperatureSBE03/SBE38deg celciusITS90
ConductivitySBE21S/mITS90
SalinitySBE21 Practical Salinity Units
ChlorophylAChelsea fluorimeterg/lCalibrated in Aceton
Missing or incorrect values are displayed as -999
Sea surface data collected by the RV Zeeleeuw from 2007-05-04 06:54:01 to 2007-05-04 14:28:36
Time Latitude Longitude Temperature Conductivity Salinity ChlorophylA
2007-05-04 06:55:06 51°13.581 2°56.133 20.5888 0.015075 0.078453 -2.871232
2007-05-04 06:56:06 51°13.58 2°56.133 20.5984 0.015075 0.078452 -2.871232
2007-05-04 06:57:06 51°13.582 2°56.125 20.6043 0.015075 0.078452 -2.871232
2007-05-04 06:58:06 51°13.599 2°56.068 20.6097 0.015075 0.078452 -2.871232
2007-05-04 06:59:06 51°13.619 2°55.998 20.6245 0.015075 0.078451 -2.871232
2007-05-04 07:00:07 51°13.634 2°55.956 20.6335 0.015075 0.078452 -2.871232
2007-05-04 07:01:06 51°13.647 2°55.923 20.6474 0.015075 0.078453 -2.871232
2007-05-04 07:02:06 51°13.641 2°55.953 20.6413 0.015075 0.078457 -2.871232
2007-05-04 07:03:07 51°13.635 2°56.002 20.6049 0.015075 0.078463 -2.871232
2007-05-04 07:04:07 51°13.632 2°56.025 20.5949 0.015075 0.078467 -2.871232
2007-05-04 07:05:06 51°13.632 2°56.025 20.6191 0.015075 0.078474 -2.871232
2007-05-04 07:06:06 51°13.633 2°56.025 20.6385 0.015075 0.078479 -2.871232
2007-05-04 07:07:06 51°13.633 2°56.024 20.6147 0.015075 0.078485 -2.871232
2007-05-04 07:08:06 51°13.634 2°56.024 20.5156 0.015075 0.078488 -2.871232
2007-05-04 07:09:06 51°13.634 2°56.025 20.5219 0.015075 0.078492 -2.871232
2007-05-04 07:10:06 51°13.633 2°56.025 20.5314 0.015075 0.078494 -2.871232
2007-05-04 07:11:06 51°13.634 2°56.025 20.5604 0.015075 0.078496 -2.871232
2007-05-04 07:12:06 51°13.633 2°56.024 20.575 0.015075 0.078498 -2.871232
2007-05-04 07:13:06 51°13.633 2°56.024 20.5913 0.015075 0.078499 -2.871232
2007-05-04 07:14:06 51°13.633 2°56.024 20.612 0.015075 0.078501 -2.871232
2007-05-04 07:15:06 51°13.633 2°56.024 20.6242 0.015075 0.078502 -2.871232
2007-05-04 07:16:06 51°13.633 2°56.024 20.6423 0.015075 0.078503 -2.871232
2007-05-04 07:17:06 51°13.633 2°56.024 20.6377 0.015075 0.078503 -2.871232
2007-05-04 07:18:06 51°13.633 2°56.024 20.6477 0.015075 0.078505 -2.871232
2007-05-04 07:19:06 51°13.634 2°56.025 20.665 0.015075 0.078506 -2.871232
2007-05-04 07:20:06 51°13.633 2°56.025 20.6723 0.015075 0.078506 -2.871232
2007-05-04 07:21:06 51°13.634 2°56.026 20.6767 0.015075 0.078507 -2.871232
2007-05-04 07:22:06 51°13.635 2°56.025 20.6828 0.015075 0.078508 -2.871232
2007-05-04 07:23:06 51°13.635 2°56.025 20.6895 0.015075 0.078508 -2.871232
2007-05-04 07:24:06 51°13.635 2°56.025 20.6857 0.015075 0.078509 -2.871232
2007-05-04 07:25:06 51°13.636 2°56.025 20.6966 0.014972 0.078005 -2.871232
2007-05-04 07:26:06 51°13.635 2°56.026 20.7077 0.014972 0.078006 -2.871232
2007-05-04 07:27:06 51°13.635 2°56.026 20.7126 0.014972 0.078007 -2.871232
2007-05-04 07:28:06 51°13.635 2°56.026 20.7176 0.014972 0.078007 -2.871232
2007-05-04 07:29:06 51°13.635 2°56.026 20.7479 0.014972 0.078009 -2.871232
2007-05-04 07:30:06 51°13.635 2°56.026 20.7581 0.014972 0.07801 -2.871232
2007-05-04 07:31:06 51°13.634 2°56.026 20.7593 0.014972 0.078011 -2.871232
2007-05-04 07:32:06 51°13.635 2°56.025 20.7681 0.014972 0.078013 -2.871232
2007-05-04 07:33:06 51°13.634 2°56.025 20.7711 0.014972 0.078012 -2.871232
2007-05-04 07:34:06 51°13.635 2°56.025 20.7792 0.014972 0.078013 -2.871232
2007-05-04 07:35:06 51°13.634 2°56.025 20.8348 0.014972 0.078013 -2.871232
2007-05-04 07:36:06 51°13.634 2°56.025 20.8416 0.014972 0.078013 -2.871232
2007-05-04 07:37:06 51°13.633 2°56.025 20.8469 0.014972 0.078012 -2.871232
2007-05-04 07:38:06 51°13.633 2°56.02 20.834 0.014972 0.078012 -2.871232
2007-05-04 07:39:06 51°13.644 2°55.977 20.8534 0.014972 0.078012 -2.871232
2007-05-04 07:40:06 51°13.661 2°55.902 20.8711 0.014972 0.078012 -2.871232
2007-05-04 07:41:06 51°13.683 2°55.818 20.8879 0.014972 0.078012 -2.871232
2007-05-04 07:42:06 51°13.701 2°55.77 20.86 0.014972 0.078013 -2.871232
2007-05-04 07:43:06 51°13.713 2°55.723 20.9604 0.014972 0.078014 -2.871232
2007-05-04 07:44:06 51°13.717 2°55.757 20.8616 0.014972 0.078019 -2.871232
2007-05-04 07:45:06 51°13.705 2°55.738 20.9225 0.014972 0.078027 -2.871232
2007-05-04 07:46:06 51°13.713 2°55.751 20.8962 0.014972 0.07804 -2.871232
2007-05-04 07:47:06 51°13.697 2°55.744 20.9046 0.014972 0.078055 -2.871232
2007-05-04 07:48:06 51°13.687 2°55.74 20.9079 0.014972 0.078068 -2.871232
2007-05-04 07:49:06 51°13.708 2°55.729 20.9234 0.014972 0.078079 -2.871232
2007-05-04 07:50:06 51°13.769 2°55.678 20.8547 0.014972 0.07809 -2.871232
2007-05-04 07:51:06 51°13.865 2°55.609 20.8649 0.014972 0.0781 -2.871232
2007-05-04 07:52:06 51°13.992 2°55.519 20.8166 0.014972 0.078114 -2.871232
2007-05-04 07:53:06 51°14.134 2°55.421 20.7407 0.014972 0.078134 -2.871232
2007-05-04 07:54:06 51°14.267 2°55.267 20.7179 0.014972 0.078159 -2.871232
2007-05-04 07:55:06 51°14.367 2°55.024 20.8219 0.014972 0.078185 -2.871232
2007-05-04 07:56:06 51°14.459 2°54.717 17.2608 0.014972 0.078199 -2.871232
2007-05-04 07:57:06 51°14.485 2°54.361 14.3763 3.842117 29.115565 -2.871232
2007-05-04 07:58:06 51°14.38 2°54.026 14.4476 3.746582 29.025777 -2.871232
2007-05-04 07:59:06 51°14.269 2°53.688 14.2024 3.763059 29.223572 -2.871232
2007-05-04 08:00:06 51°14.144 2°53.356 14.1969 3.753009 29.222572 -2.871232
2007-05-04 08:01:06 51°14.007 2°53.03 14.1591 3.764718 29.345829 -2.871232
2007-05-04 08:02:06 51°13.872 2°52.699 14.1739 3.762335 29.343132 -2.871232
2007-05-04 08:03:06 51°13.744 2°52.361 14.1429 3.734047 29.085563 -2.871232
2007-05-04 08:04:06 51°13.609 2°52.032 14.1334 3.566221 27.664582 -2.871232
2007-05-04 08:05:06 51°13.479 2°51.694 14.1572 3.740575 29.169819 -2.871232
2007-05-04 08:06:06 51°13.349 2°51.356 14.1794 3.736327 29.131693 -2.871232
2007-05-04 08:07:06 51°13.221 2°51.01 14.2297 3.762853 29.344962 -2.871232
2007-05-04 08:08:06 51°13.092 2°50.661 14.2174 3.760263 29.299931 -2.871232
2007-05-04 08:09:06 51°12.965 2°50.311 14.2304 3.762749 29.319474 -2.871232
2007-05-04 08:10:06 51°12.84 2°49.96 14.2188 3.762439 29.320103 -2.871232
2007-05-04 08:11:06 51°12.715 2°49.607 14.2302 3.753113 29.237366 -2.871232
2007-05-04 08:12:06 51°12.589 2°49.259 14.213 3.753216 29.234291 -2.871232
2007-05-04 08:13:06 51°12.461 2°48.919 14.2176 3.754874 29.259242 -2.871232
2007-05-04 08:14:06 51°12.345 2°48.576 14.2223 3.751247 29.219898 -2.871232
2007-05-04 08:15:06 51°12.234 2°48.22 14.222 3.750729 29.221369 -2.871232
2007-05-04 08:16:06 51°12.124 2°47.862 14.2501 3.75446 29.253002 -2.871232
2007-05-04 08:17:06 51°12.016 2°47.504 14.2698 3.753734 29.226202 -2.871232
2007-05-04 08:18:06 51°11.943 2°47.128 14.3017 3.751972 29.190482 -2.871232
2007-05-04 08:19:06 51°11.882 2°46.745 14.305 3.753112 29.180539 -2.871232
2007-05-04 08:20:06 51°11.825 2°46.359 14.3213 3.750107 29.149968 -2.871232
2007-05-04 08:21:06 51°11.789 2°45.968 14.3267 3.746065 29.105205 -2.871232
2007-05-04 08:22:06 51°11.753 2°45.579 14.3083 3.748967 29.141441 -2.871232
2007-05-04 08:23:06 51°11.715 2°45.194 14.2672 3.752594 29.192556 -2.871232
2007-05-04 08:24:06 51°11.679 2°44.814 14.2651 3.752387 29.209259 -2.871232
2007-05-04 08:25:06 51°11.642 2°44.441 14.2568 3.752801 29.217472 -2.871232
2007-05-04 08:26:06 51°11.61 2°44.07 14.2527 3.753423 29.227481 -2.871232
2007-05-04 08:27:06 51°11.576 2°43.697 14.2677 3.750833 29.207051 -2.871232
2007-05-04 08:28:06 51°11.545 2°43.326 14.2567 3.762024 29.304566 -2.871232
2007-05-04 08:29:06 51°11.5 2°42.957 14.2574 3.762646 29.311939 -2.871232
2007-05-04 08:30:06 51°11.455 2°42.585 14.2569 3.762128 29.304136 -2.871232
2007-05-04 08:31:06 51°11.404 2°42.212 14.2587 3.762335 29.306594 -2.871232
2007-05-04 08:32:06 51°11.357 2°41.834 14.2659 3.762956 29.308658 -2.871232
2007-05-04 08:33:06 51°11.305 2°41.505 14.2491 3.762956 29.306005 -2.871232
2007-05-04 08:34:06 51°11.21 2°41.436 14.2435 3.765029 29.348522 -2.871232
2007-05-04 08:35:06 51°11.163 2°41.513 14.2224 3.766584 29.365314 -2.871232
2007-05-04 08:36:06 51°11.124 2°41.656 14.2281 3.765962 29.364584 -2.871232
2007-05-04 08:37:06 51°11.099 2°41.823 14.1925 3.765859 29.372339 -2.871232
2007-05-04 08:38:06 51°11.088 2°41.957 14.1512 3.768968 29.434655 -2.871232
2007-05-04 08:39:06 51°11.085 2°42.021 14.1591 3.769279 29.45273 -2.871232
2007-05-04 08:40:06 51°11.098 2°42.054 14.1421 3.770212 29.464176 -2.871232
2007-05-04 08:41:06 51°11.086 2°42.054 14.1509 3.767932 29.44772 -2.871232
2007-05-04 08:42:06 51°11.065 2°42.036 14.1512 3.76845 29.45222 -2.871232
2007-05-04 08:43:06 51°11.041 2°42.002 14.1569 3.768243 29.447744 -2.871232
2007-05-04 08:44:06 51°11.019 2°41.963 14.15 3.768139 29.444838 -2.871232
2007-05-04 08:45:06 51°10.999 2°41.925 14.1541 3.76731 29.438975 -2.871232
2007-05-04 08:46:06 51°10.978 2°41.889 14.1572 3.767517 29.437432 -2.871232
2007-05-04 08:47:06 51°10.952 2°41.883 14.1711 3.767517 29.43409 -2.871232
2007-05-04 08:48:06 51°10.96 2°41.927 14.1742 3.767621 29.42697 -2.871232
2007-05-04 08:49:06 51°11.018 2°41.972 14.1733 3.766688 29.420878 -2.871232
2007-05-04 08:50:06 51°11.084 2°42.039 14.1662 3.766377 29.419516 -2.871232
2007-05-04 08:51:06 51°11.106 2°42.065 14.1627 3.766999 29.428922 -2.871232
2007-05-04 08:52:06 51°11.096 2°42.059 14.175 3.766481 29.422419 -2.871232
2007-05-04 08:53:06 51°11.091 2°42.06 14.1803 3.765963 29.411243 -2.871232
2007-05-04 08:54:06 51°11.128 2°41.99 14.1779 3.76617 29.408369 -2.871232
2007-05-04 08:55:06 51°11.107 2°41.708 14.215 3.765652 29.397867 -2.871232
2007-05-04 08:56:06 51°11.03 2°41.347 14.2234 3.765548 29.37697 -2.871232
2007-05-04 08:57:06 51°10.949 2°40.977 14.2238 3.7642 29.351315 -2.871232
2007-05-04 08:58:06 51°10.881 2°40.6 14.2209 3.76503 29.361826 -2.871232
2007-05-04 08:59:06 51°10.814 2°40.225 14.1823 3.766066 29.380796 -2.871232
2007-05-04 09:00:06 51°10.753 2°39.843 14.1485 3.76845 29.430826 -2.871232
2007-05-04 09:01:06 51°10.71 2°39.458 14.118 3.772181 29.491997 -2.871232
2007-05-04 09:02:06 51°10.657 2°39.074 14.1005 3.77301 29.511273 -2.871232
2007-05-04 09:03:06 51°10.596 2°38.689 14.0538 3.776845 29.570829 -2.871232
2007-05-04 09:04:06 51°10.539 2°38.303 13.9977 3.77985 29.626652 -2.871232
2007-05-04 09:05:06 51°10.481 2°37.924 13.9596 3.786276 29.726665 -2.871232
2007-05-04 09:06:06 51°10.426 2°37.556 13.9474 3.79208 29.805892 -2.871232
2007-05-04 09:07:06 51°10.373 2°37.187 13.9445 3.792701 29.816094 -2.871232
2007-05-04 09:08:06 51°10.327 2°36.818 13.9107 3.79664 29.862117 -2.871232
2007-05-04 09:09:06 51°10.404 2°36.501 13.8752 3.811978 30.021687 -2.871232
2007-05-04 09:10:06 51°10.579 2°36.398 13.8548 3.819129 30.10982 -2.871232
2007-05-04 09:11:06 51°10.768 2°36.469 13.8586 3.817886 30.112709 -2.871232
2007-05-04 09:12:06 51°10.959 2°36.53 13.8554 3.812186 30.057893 -2.871232
2007-05-04 09:13:06 51°11.148 2°36.581 13.8375 3.807522 30.027323 -2.871232
2007-05-04 09:14:06 51°11.33 2°36.651 13.8378 3.790423 29.891114 -2.871232
2007-05-04 09:15:06 51°11.514 2°36.739 13.8513 3.770423 29.709695 -2.871232
2007-05-04 09:16:06 51°11.699 2°36.828 13.8423 3.774257 29.738509 -2.871232
2007-05-04 09:17:06 51°11.883 2°36.91 13.8148 3.772806 29.738752 -2.871232
2007-05-04 09:18:06 51°12.063 2°36.993 13.7947 3.772496 29.755813 -2.871232
2007-05-04 09:19:06 51°12.243 2°37.071 13.7971 3.772185 29.764014 -2.871232
2007-05-04 09:20:06 51°12.426 2°37.149 13.8028 3.77146 29.752872 -2.871232
2007-05-04 09:21:06 51°12.611 2°37.228 13.7874 3.771563 29.752415 -2.871232
2007-05-04 09:22:06 51°12.798 2°37.305 13.7427 3.772704 29.779496 -2.871232
2007-05-04 09:23:06 51°12.984 2°37.385 13.7182 3.775087 29.834668 -2.871232
2007-05-04 09:24:06 51°13.174 2°37.45 13.7028 3.775813 29.860265 -2.871232
2007-05-04 09:25:06 51°13.37 2°37.47 13.6873 3.774777 29.86146 -2.871232
2007-05-04 09:26:06 51°13.567 2°37.447 13.6696 3.774881 29.871998 -2.871232
2007-05-04 09:27:06 51°13.77 2°37.357 13.6343 3.774985 29.89287 -2.871232
2007-05-04 09:28:06 51°13.963 2°37.225 13.547 3.777991 29.958678 -2.871232
2007-05-04 09:29:06 51°14.15 2°37.084 13.5301 3.781722 30.063031 -2.871232
2007-05-04 09:30:06 51°14.338 2°36.953 13.5581 3.779753 30.033122 -2.871232
2007-05-04 09:31:06 51°14.527 2°36.835 13.5615 3.780271 30.020345 -2.871232
2007-05-04 09:32:06 51°14.716 2°36.732 13.5556 3.77768 29.998165 -2.871232
2007-05-04 09:33:06 51°14.914 2°36.631 13.5542 3.779753 30.022014 -2.871232
2007-05-04 09:34:06 51°15.103 2°36.53 13.551 3.779753 30.022708 -2.871232
2007-05-04 09:35:06 51°15.29 2°36.428 13.5449 3.77851 30.013114 -2.871232
2007-05-04 09:36:06 51°15.482 2°36.333 13.5446 3.780893 30.039025 -2.871232
2007-05-04 09:37:06 51°15.676 2°36.296 13.5232 3.779961 30.037037 -2.871232
2007-05-04 09:38:06 51°15.869 2°36.308 13.4982 3.781515 30.066764 -2.871232
2007-05-04 09:39:06 51°16.053 2°36.356 13.4676 3.780894 30.080758 -2.871232
2007-05-04 09:40:06 51°16.221 2°36.47 13.4367 3.78048 30.107071 -2.871232
2007-05-04 09:41:06 51°16.377 2°36.594 13.4165 3.783693 30.157192 -2.871232
2007-05-04 09:42:06 51°16.479 2°36.677 13.3741 3.784418 30.19164 -2.871232
2007-05-04 09:43:06 51°16.533 2°36.74 13.3612 3.784419 30.213393 -2.871232
2007-05-04 09:44:06 51°16.56 2°36.74 13.3593 3.784626 30.222257 -2.871232
2007-05-04 09:45:06 51°16.579 2°36.77 13.3496 3.785144 30.231075 -2.871232
2007-05-04 09:46:06 51°16.602 2°36.776 13.3568 3.784937 30.232749 -2.871232
2007-05-04 09:47:06 51°16.579 2°36.77 13.3435 3.785559 30.239678 -2.871232
2007-05-04 09:48:06 51°16.547 2°36.745 13.3447 3.785145 30.244436 -2.871232
2007-05-04 09:49:06 51°16.513 2°36.711 13.3568 3.785559 30.243898 -2.871232
2007-05-04 09:50:06 51°16.481 2°36.673 13.3604 3.786284 30.243309 -2.871232
2007-05-04 09:51:06 51°16.448 2°36.634 13.36 3.786181 30.240279 -2.871232
2007-05-04 09:52:06 51°16.418 2°36.643 13.3577 3.785973 30.239141 -2.871232
2007-05-04 09:53:06 51°16.455 2°36.692 13.3496 3.785248 30.242543 -2.871232
2007-05-04 09:54:06 51°16.572 2°36.816 13.3476 3.784315 30.232851 -2.871232
2007-05-04 09:55:06 51°16.711 2°36.962 13.3364 3.784419 30.236584 -2.871232
2007-05-04 09:56:06 51°16.859 2°37.12 13.3214 3.78473 30.246382 -2.871232
2007-05-04 09:57:06 51°17.01 2°37.281 13.302 3.785248 30.265776 -2.871232
2007-05-04 09:58:06 51°17.157 2°37.44 13.2803 3.78556 30.286167 -2.871232
2007-05-04 09:59:06 51°17.309 2°37.584 13.2516 3.785871 30.306582 -2.871232
2007-05-04 10:00:06 51°17.463 2°37.733 13.222 3.786493 30.33616 -2.871232
2007-05-04 10:01:06 51°17.616 2°37.878 13.1997 3.787322 30.367635 -2.871232
2007-05-04 10:02:06 51°17.771 2°38.028 13.1905 3.787944 30.385951 -2.871232
2007-05-04 10:03:06 51°17.927 2°38.182 13.1747 3.788566 30.403573 -2.871232
2007-05-04 10:04:06 51°18.081 2°38.336 13.1586 3.789085 30.418861 -2.871232
2007-05-04 10:05:06 51°18.235 2°38.493 13.1417 3.790121 30.444485 -2.871232
2007-05-04 10:06:06 51°18.39 2°38.646 13.1334 3.79095 30.465433 -2.871232
2007-05-04 10:07:06 51°18.545 2°38.801 13.1229 3.791158 30.475845 -2.871232
2007-05-04 10:08:06 51°18.699 2°38.953 13.1334 3.791261 30.476058 -2.871232
2007-05-04 10:09:06 51°18.847 2°39.102 13.1277 3.79178 30.48069 -2.871232
2007-05-04 10:10:06 51°19.001 2°39.254 13.131 3.792298 30.485323 -2.871232
2007-05-04 10:11:06 51°19.156 2°39.406 13.1285 3.793023 30.493237 -2.871232
2007-05-04 10:12:06 51°19.316 2°39.558 13.1141 3.793541 30.499298 -2.871232
2007-05-04 10:13:06 51°19.457 2°39.705 13.0906 3.79406 30.521083 -2.871232
2007-05-04 10:14:06 51°19.611 2°39.858 13.0463 3.794682 30.545969 -2.871232
2007-05-04 10:15:06 51°19.778 2°39.978 13.0011 3.795512 30.594997 -2.871232
2007-05-04 10:16:06 51°19.962 2°40.037 12.9559 3.796341 30.63696 -2.871232
2007-05-04 10:17:06 51°20.129 2°40.096 12.9099 3.796964 30.682215 -2.871232
2007-05-04 10:18:06 51°20.308 2°40.159 12.8794 3.796757 30.712889 -2.871232
2007-05-04 10:19:06 51°20.486 2°40.199 12.8654 3.797172 30.738353 -2.871232
2007-05-04 10:20:06 51°20.669 2°40.213 12.8525 3.798312 30.761679 -2.871232
2007-05-04 10:21:06 51°20.849 2°40.225 12.8415 3.798623 30.774647 -2.871232
2007-05-04 10:22:06 51°21.034 2°40.239 12.8397 3.798934 30.785443 -2.871232
2007-05-04 10:23:06 51°21.214 2°40.251 12.8352 3.800385 30.802159 -2.871232
2007-05-04 10:24:06 51°21.397 2°40.278 12.8467 3.802458 30.817209 -2.871232
2007-05-04 10:25:06 51°21.566 2°40.33 12.8423 3.804945 30.837451 -2.871232
2007-05-04 10:26:06 51°21.711 2°40.158 12.8229 3.805463 30.850864 -2.871232
2007-05-04 10:27:06 51°21.856 2°39.954 12.7683 3.808469 30.894756 -2.871232
2007-05-04 10:28:06 51°22.005 2°39.759 12.739 3.810646 30.954637 -2.871232
2007-05-04 10:29:06 51°22.179 2°39.654 12.7007 3.809506 30.96412 -2.871232
2007-05-04 10:30:06 51°22.362 2°39.725 12.6386 3.810543 31.023458 -2.871232
2007-05-04 10:31:06 51°22.533 2°39.819 12.5894 3.81158 31.076348 -2.871232
2007-05-04 10:32:06 51°22.706 2°39.913 12.5547 3.808161 31.083731 -2.871232
2007-05-04 10:33:06 51°22.882 2°40 12.5107 3.807643 31.116784 -2.871232
2007-05-04 10:34:06 51°23.034 2°40.149 12.4745 3.812825 31.194378 -2.871232
2007-05-04 10:35:06 51°23.158 2°40.367 12.4603 3.816764 31.266776 -2.871232
2007-05-04 10:36:06 51°23.256 2°40.612 12.4543 3.816039 31.266882 -2.871232
2007-05-04 10:37:06 51°23.356 2°40.857 12.4564 3.815313 31.261014 -2.871232
2007-05-04 10:38:07 51°23.451 2°41.107 12.4564 3.814484 31.254201 -2.871232
2007-05-04 10:39:06 51°23.542 2°41.353 12.4682 3.811582 31.227744 -2.871232
2007-05-04 10:40:06 51°23.639 2°41.605 12.4719 3.814484 31.245991 -2.871232
2007-05-04 10:41:06 51°23.739 2°41.862 12.475 3.81438 31.245793 -2.871232
2007-05-04 10:42:06 51°23.836 2°42.116 12.4716 3.814795 31.243603 -2.871232
2007-05-04 10:43:06 51°23.932 2°42.363 12.5003 3.816246 31.255335 -2.871232
2007-05-04 10:44:06 51°24.029 2°42.612 12.5285 3.813344 31.202072 -2.871232
2007-05-04 10:45:06 51°24.127 2°42.855 12.5491 3.812307 31.167362 -2.871232
2007-05-04 10:46:06 51°24.209 2°43.113 12.5562 3.809094 31.125528 -2.871232
2007-05-04 10:47:06 51°24.291 2°43.375 12.5694 3.807643 31.101965 -2.871232
2007-05-04 10:48:06 51°24.375 2°43.645 12.5775 3.807539 31.09584 -2.871232
2007-05-04 10:49:06 51°24.46 2°43.91 12.5833 3.807746 31.090322 -2.871232
2007-05-04 10:50:06 51°24.545 2°44.177 12.5853 3.806192 31.076939 -2.871232
2007-05-04 10:51:06 51°24.626 2°44.44 12.6004 3.689515 30.013114 -2.871232
2007-05-04 10:52:06 51°24.708 2°44.709 12.6062 3.70402 30.133511 -2.871232
2007-05-04 10:53:06 51°24.789 2°44.98 12.625 3.698425 30.076498 -2.871232
2007-05-04 10:54:06 51°24.873 2°45.253 12.6409 3.65802 29.693323 -2.871232
2007-05-04 10:55:06 51°24.95 2°45.522 12.6792 3.611609 29.262101 -2.871232
2007-05-04 10:56:06 51°25.031 2°45.792 12.7071 3.658537 29.657144 -2.871232
2007-05-04 10:57:06 51°25.114 2°46.062 12.7358 3.662888 29.666777 -2.871232
2007-05-04 10:58:06 51°25.198 2°46.343 12.7466 3.684126 29.841666 -2.871232
2007-05-04 10:59:06 51°25.276 2°46.613 12.7674 3.81106 30.977445 -2.871232
2007-05-04 11:00:06 51°25.36 2°46.887 12.7738 3.813444 30.983595 -2.871232
2007-05-04 11:01:06 51°25.443 2°47.163 12.7842 3.816138 31.002084 -2.871232
2007-05-04 11:02:06 51°25.527 2°47.437 12.7912 3.818211 31.01495 -2.871232
2007-05-04 11:03:06 51°25.607 2°47.716 12.7848 3.820076 31.029609 -2.871232
2007-05-04 11:04:06 51°25.69 2°47.984 12.7939 3.821631 31.042926 -2.871232
2007-05-04 11:05:06 51°25.784 2°48.16 12.7987 3.823185 31.051835 -2.871232
2007-05-04 11:06:06 51°25.872 2°48.275 12.7952 3.824429 31.057198 -2.871232
2007-05-04 11:07:06 51°25.935 2°48.381 12.791 3.82474 31.066621 -2.871232
2007-05-04 11:08:06 51°25.976 2°48.463 12.7792 3.825155 31.074778 -2.871232
2007-05-04 11:09:06 51°25.994 2°48.484 12.7846 3.824947 31.075845 -2.871232
2007-05-04 11:10:06 51°25.982 2°48.489 12.7795 3.825776 31.078929 -2.871232
2007-05-04 11:11:06 51°25.953 2°48.473 12.7757 3.825569 31.081467 -2.871232
2007-05-04 11:12:06 51°25.916 2°48.501 12.7772 3.824947 31.0832 -2.871232
2007-05-04 11:13:06 51°25.854 2°48.766 12.7915 3.825155 31.078455 -2.871232
2007-05-04 11:14:07 51°25.801 2°49.098 12.8411 3.825051 31.059879 -2.871232
2007-05-04 11:15:06 51°25.748 2°49.424 12.8936 3.826708 31.03157 -2.871232
2007-05-04 11:16:06 51°25.692 2°49.753 12.9262 3.829195 31.01228 -2.871232
2007-05-04 11:17:06 51°25.636 2°50.086 13.0059 3.829816 30.990119 -2.871232
2007-05-04 11:18:06 51°25.579 2°50.414 13.0611 3.833339 30.948229 -2.871232
2007-05-04 11:19:06 51°25.521 2°50.743 13.0724 3.839868 30.97197 -2.871232
2007-05-04 11:20:06 51°25.466 2°51.072 13.0645 3.842873 30.994586 -2.871232
2007-05-04 11:21:06 51°25.407 2°51.404 13.0436 3.841008 30.985839 -2.871232
2007-05-04 11:22:06 51°25.347 2°51.735 13.0128 3.840283 30.999698 -2.871232
2007-05-04 11:23:06 51°25.284 2°52.063 12.9884 3.837899 31.006687 -2.871232
2007-05-04 11:24:06 51°25.226 2°52.393 13.0331 3.84049 31.026337 -2.871232
2007-05-04 11:25:06 51°25.176 2°52.728 13.0752 3.841215 31.002253 -2.871232
2007-05-04 11:26:06 51°25.145 2°53.065 13.103 3.840075 30.961479 -2.871232
2007-05-04 11:27:06 51°25.115 2°53.405 13.1272 3.842873 30.963348 -2.871232
2007-05-04 11:28:06 51°25.084 2°53.748 13.1548 3.845671 30.960142 -2.871232
2007-05-04 11:29:06 51°25.051 2°54.087 13.1533 3.8465 30.957423 -2.871232
2007-05-04 11:30:07 51°25.019 2°54.434 13.132 3.845152 30.94608 -2.871232
2007-05-04 11:31:06 51°24.985 2°54.77 13.0892 3.846086 30.978364 -2.871232
2007-05-04 11:32:06 51°24.951 2°55.111 13.0657 3.844946 31.000828 -2.871232
2007-05-04 11:33:06 51°24.922 2°55.453 13.0568 3.846501 31.03516 -2.871232
2007-05-04 11:34:06 51°24.894 2°55.799 13.0284 3.846916 31.041797 -2.871232
2007-05-04 11:35:06 51°24.865 2°56.144 12.9839 3.846087 31.069358 -2.871232
2007-05-04 11:36:06 51°24.836 2°56.488 12.9687 3.845466 31.08861 -2.871232
2007-05-04 11:37:06 51°24.802 2°56.83 12.9007 3.843704 31.094699 -2.871232
2007-05-04 11:38:06 51°24.78 2°57.172 12.8617 3.838626 31.111233 -2.871232
2007-05-04 11:39:06 51°24.759 2°57.515 12.8918 3.836347 31.103875 -2.871232
2007-05-04 11:40:06 51°24.74 2°57.863 12.9213 3.836761 31.080476 -2.871232
2007-05-04 11:41:06 51°24.718 2°58.213 12.9198 3.838937 31.07958 -2.871232
2007-05-04 11:42:06 51°24.696 2°58.562 12.9119 3.837693 31.076429 -2.871232
2007-05-04 11:43:06 51°24.672 2°58.909 12.9426 3.836968 31.064766 -2.871232
2007-05-04 11:44:06 51°24.663 2°59.255 12.9585 3.838315 31.05861 -2.871232
2007-05-04 11:45:06 51°24.654 2°59.602 12.9852 3.838729 31.049182 -2.871232
2007-05-04 11:46:07 51°24.649 2°59.96 13.0482 3.842252 31.044368 -2.871232
2007-05-04 11:47:06 51°24.641 3°0.311 13.0871 3.844635 31.022777 -2.871232
2007-05-04 11:48:06 51°24.623 3°0.669 13.1153 3.846708 31.007911 -2.871232
2007-05-04 11:49:06 51°24.611 3°1.026 13.0979 3.848262 31.010226 -2.871232
2007-05-04 11:50:06 51°24.597 3°1.385 13.0923 3.84764 31.006829 -2.871232
2007-05-04 11:51:06 51°24.583 3°1.744 13.0703 3.846397 31.013848 -2.871232
2007-05-04 11:52:06 51°24.564 3°2.106 13.1116 3.846811 31.003753 -2.871232
2007-05-04 11:53:07 51°24.538 3°2.474 13.0975 3.84764 31.006829 -2.871232
2007-05-04 11:54:06 51°24.502 3°2.828 13.0847 3.845775 31.000997 -2.871232
2007-05-04 11:55:06 51°24.463 3°3.191 13.0973 3.844635 30.990043 -2.871232
2007-05-04 11:56:06 51°24.406 3°3.548 13.1122 3.843806 30.976068 -2.871232
2007-05-04 11:57:06 51°24.332 3°3.904 13.1249 3.842355 30.952172 -2.871232
2007-05-04 11:58:06 51°24.25 3°4.26 13.122 3.840282 30.919825 -2.871232
2007-05-04 11:59:06 51°24.134 3°4.585 13.1519 3.84194 30.94048 -2.871232
2007-05-04 12:00:07 51°24.05 3°4.943 13.1341 3.843183 30.928443 -2.871232
2007-05-04 12:01:06 51°23.977 3°5.3 13.1867 3.841318 30.908842 -2.871232
2007-05-04 12:02:06 51°23.903 3°5.66 13.2306 3.843597 30.888056 -2.871232
2007-05-04 12:03:06 51°23.826 3°6.021 13.2521 3.844737 30.875883 -2.871232
2007-05-04 12:04:06 51°23.75 3°6.381 13.2611 3.845877 30.86373 -2.871232
2007-05-04 12:05:06 51°23.679 3°6.744 13.2303 3.849089 30.883778 -2.871232
2007-05-04 12:06:06 51°23.606 3°7.107 13.2003 3.852407 30.948773 -2.871232
2007-05-04 12:07:06 51°23.533 3°7.472 13.213 3.852821 30.96767 -2.871232
2007-05-04 12:08:06 51°23.462 3°7.841 13.1934 3.853754 30.976738 -2.871232
2007-05-04 12:09:07 51°23.395 3°8.216 13.5674 3.853857 30.920584 -2.871232
2007-05-04 12:10:06 51°23.325 3°8.576 13.778 3.848877 30.573958 -2.871232
2007-05-04 12:11:07 51°23.256 3°8.949 13.7957 3.83592 30.323774 -2.871232
2007-05-04 12:12:06 51°23.188 3°9.306 13.8029 3.831774 30.307501 -2.871232
2007-05-04 12:13:07 51°23.119 3°9.675 13.8712 3.820892 30.197899 -2.871232
2007-05-04 12:14:06 51°23.052 3°10.036 13.9051 3.819647 30.112294 -2.871232
2007-05-04 12:15:06 51°22.985 3°10.408 13.9079 3.812911 30.03398 -2.871232
2007-05-04 12:16:07 51°22.916 3°10.785 13.8999 3.807107 29.985206 -2.871232
2007-05-04 12:17:06 51°22.848 3°11.151 13.9639 3.802029 29.933884 -2.871232
2007-05-04 12:18:07 51°22.785 3°11.53 13.9615 3.801821 29.890355 -2.871232
2007-05-04 12:19:06 51°22.718 3°11.868 14.0288 3.787105 29.738651 -2.871232
2007-05-04 12:20:07 51°22.651 3°12.194 14.0342 3.774151 29.602627 -2.871232
2007-05-04 12:21:06 51°22.585 3°12.511 14.0436 3.768659 29.543297 -2.871232
2007-05-04 12:22:07 51°22.517 3°12.823 14.1077 3.769591 29.533921 -2.871232
2007-05-04 12:23:06 51°22.51 3°13.057 14.1507 3.767725 29.466672 -2.871232
2007-05-04 12:24:06 51°22.526 3°13.221 14.1904 3.755704 29.34087 -2.871232
2007-05-04 12:25:07 51°22.531 3°13.319 14.1844 3.755704 29.311574 -2.871232
2007-05-04 12:26:06 51°22.515 3°13.376 14.173 3.752803 29.29306 -2.871232
2007-05-04 12:27:07 51°22.499 3°13.428 14.1733 3.75073 29.281066 -2.871232
2007-05-04 12:28:06 51°22.482 3°13.476 14.1998 3.749798 29.270318 -2.871232
2007-05-04 12:29:07 51°22.466 3°13.526 14.2 3.750523 29.258678 -2.871232
2007-05-04 12:30:06 51°22.449 3°13.574 14.1899 3.750108 29.255749 -2.871232
2007-05-04 12:31:07 51°22.431 3°13.625 14.18 3.748036 29.247073 -2.871232
2007-05-04 12:32:06 51°22.415 3°13.676 14.1791 3.746067 29.236638 -2.871232
2007-05-04 12:33:07 51°22.397 3°13.73 14.1794 3.745342 29.229021 -2.871232
2007-05-04 12:34:06 51°22.38 3°13.786 14.1915 3.745031 29.224999 -2.871232
2007-05-04 12:35:06 51°22.361 3°13.845 14.1776 3.744202 29.22179 -2.871232
2007-05-04 12:36:07 51°22.341 3°13.907 14.1706 3.743373 29.215265 -2.871232
2007-05-04 12:37:06 51°22.323 3°13.969 14.1801 3.742648 29.212291 -2.871232
2007-05-04 12:38:07 51°22.305 3°14.031 14.1813 3.742855 29.208784 -2.871232
2007-05-04 12:39:06 51°22.285 3°14.092 14.1779 3.742752 29.206559 -2.871232
2007-05-04 12:40:06 51°22.264 3°14.167 14.1785 3.741094 29.194836 -2.871232
2007-05-04 12:41:06 51°22.273 3°14.295 14.1532 3.743373 29.21195 -2.871232
2007-05-04 12:42:07 51°22.321 3°14.367 14.1565 3.740472 29.208672 -2.871232
2007-05-04 12:43:07 51°22.345 3°14.344 14.1498 3.739954 29.201524 -2.871232
2007-05-04 12:44:06 51°22.359 3°14.269 14.1514 3.741198 29.209657 -2.871232
2007-05-04 12:45:07 51°22.389 3°14.182 14.1389 3.742441 29.225754 -2.871232
2007-05-04 12:46:06 51°22.413 3°14.091 14.1424 3.745135 29.254448 -2.871232
2007-05-04 12:47:06 51°22.471 3°14.036 14.1438 3.74928 29.281777 -2.871232
2007-05-04 12:48:06 51°22.451 3°13.955 14.1511 3.7527 29.318779 -2.871232
2007-05-04 12:49:07 51°22.452 3°13.855 14.1382 3.754668 29.331874 -2.871232
2007-05-04 12:50:06 51°22.456 3°13.751 14.1382 3.752492 29.317646 -2.871232
2007-05-04 12:51:06 51°22.472 3°13.659 14.1409 3.754047 29.328475 -2.871232
2007-05-04 12:52:07 51°22.485 3°13.595 14.1545 3.757052 29.351232 -2.871232
2007-05-04 12:53:06 51°22.5 3°13.536 14.132 3.762751 29.391369 -2.871232
2007-05-04 12:54:07 51°22.523 3°13.406 14.0841 3.771352 29.498871 -2.871232
2007-05-04 12:55:06 51°22.537 3°13.302 14.0635 3.772285 29.538546 -2.871232
2007-05-04 12:56:06 51°22.534 3°13.205 14.0687 3.775705 29.577737 -2.871232
2007-05-04 12:57:06 51°22.518 3°13.108 14.0467 3.779435 29.607527 -2.871232
2007-05-04 12:58:06 51°22.499 3°12.959 14.0403 3.779229 29.62461 -2.871232
2007-05-04 12:59:06 51°22.472 3°12.69 14.0497 3.778192 29.609508 -2.871232
2007-05-04 13:00:06 51°22.449 3°12.413 14.0714 3.777881 29.6068 -2.871232
2007-05-04 13:01:06 51°22.428 3°12.135 14.0743 3.778296 29.595579 -2.871232
2007-05-04 13:02:06 51°22.383 3°11.867 14.0568 3.781922 29.619744 -2.871232
2007-05-04 13:03:06 51°22.307 3°11.609 14.0572 3.78441 29.649496 -2.871232
2007-05-04 13:04:06 51°22.235 3°11.355 14.0582 3.788555 29.694391 -2.871232
2007-05-04 13:05:06 51°22.171 3°11.1 14.0765 3.786689 29.67138 -2.871232
2007-05-04 13:06:06 51°22.108 3°10.837 14.1005 3.77757 29.580508 -2.871232
2007-05-04 13:07:06 51°22.055 3°10.567 14.1496 3.776119 29.543003 -2.871232
2007-05-04 13:08:06 51°21.996 3°10.297 14.1232 3.778295 29.549834 -2.871232
2007-05-04 13:09:06 51°21.938 3°10.026 14.1789 3.781404 29.574845 -2.871232
2007-05-04 13:10:06 51°21.885 3°9.756 14.1245 3.788554 29.626246 -2.871232
2007-05-04 13:11:06 51°21.823 3°9.487 14.1373 3.788554 29.624227 -2.871232
2007-05-04 13:12:06 51°21.761 3°9.217 14.1259 3.786067 29.609335 -2.871232
2007-05-04 13:13:06 51°21.696 3°8.945 14.1364 3.786481 29.600159 -2.871232
2007-05-04 13:14:06 51°21.632 3°8.672 14.1395 3.789176 29.632998 -2.871232
2007-05-04 13:15:06 51°21.57 3°8.397 14.1204 3.794564 29.679852 -2.871232
2007-05-04 13:16:06 51°21.511 3°8.118 14.1122 3.800368 29.741812 -2.871232
2007-05-04 13:17:06 51°21.445 3°7.84 14.1139 3.808866 29.814412 -2.871232
2007-05-04 13:18:06 51°21.38 3°7.566 14.1539 3.81612 29.869415 -2.871232
2007-05-04 13:19:06 51°21.306 3°7.297 14.1101 3.813944 29.864046 -2.871232
2007-05-04 13:20:06 51°21.214 3°7.04 14.1143 3.810524 29.842412 -2.871232
2007-05-04 13:21:06 51°21.084 3°6.825 14.1296 3.806068 29.801575 -2.871232
2007-05-04 13:22:06 51°20.946 3°6.621 14.165 3.80586 29.749712 -2.871232
2007-05-04 13:23:06 51°20.792 3°6.448 14.175 3.797155 29.677434 -2.871232
2007-05-04 13:24:06 51°20.619 3°6.315 14.1743 3.793009 29.632001 -2.871232
2007-05-04 13:25:06 51°20.447 3°6.179 14.163 3.792906 29.645901 -2.871232
2007-05-04 13:26:06 51°20.278 3°6.038 14.1886 3.78845 29.602479 -2.871232
2007-05-04 13:27:06 51°20.111 3°5.884 14.2182 3.78161 29.500892 -2.871232
2007-05-04 13:28:06 51°19.954 3°5.713 14.2617 3.774977 29.427384 -2.871232
2007-05-04 13:29:06 51°19.829 3°5.487 14.2683 3.768656 29.35268 -2.871232
2007-05-04 13:30:06 51°19.722 3°5.238 14.2937 3.763164 29.298515 -2.871232
2007-05-04 13:31:06 51°19.609 3°5.001 14.3177 3.767515 29.306336 -2.871232
2007-05-04 13:32:06 51°19.494 3°4.751 14.2862 3.766168 29.31722 -2.871232
2007-05-04 13:33:06 51°19.386 3°4.503 14.2613 3.772282 29.353518 -2.871232
2007-05-04 13:34:06 51°19.274 3°4.26 14.2642 3.773319 29.392383 -2.871232
2007-05-04 13:35:06 51°19.161 3°4.014 14.2793 3.774355 29.398028 -2.871232
2007-05-04 13:36:06 51°19.048 3°3.774 14.2743 3.776324 29.408418 -2.871232
2007-05-04 13:37:06 51°18.936 3°3.534 14.281 3.772697 29.379686 -2.871232
2007-05-04 13:38:06 51°18.827 3°3.293 14.2787 3.7642 29.308144 -2.871232
2007-05-04 13:39:06 51°18.725 3°3.045 14.2416 3.762542 29.299102 -2.871232
2007-05-04 13:40:06 51°18.621 3°2.801 14.2321 3.764822 29.346726 -2.871232
2007-05-04 13:41:06 51°18.518 3°2.55 14.2085 3.761714 29.328435 -2.871232
2007-05-04 13:42:06 51°18.414 3°2.301 14.2516 3.764511 29.359331 -2.871232
2007-05-04 13:43:06 51°18.308 3°2.052 14.2123 3.76648 29.368408 -2.871232
2007-05-04 13:44:06 51°18.211 3°1.796 14.207 3.769692 29.38293 -2.871232
2007-05-04 13:45:06 51°18.118 3°1.543 14.2176 3.769693 29.402244 -2.871232
2007-05-04 13:46:06 51°18.021 3°1.288 14.2014 3.769693 29.410911 -2.871232
2007-05-04 13:47:06 51°17.919 3°1.043 14.1892 3.771144 29.423491 -2.871232
2007-05-04 13:48:06 51°17.822 3°0.792 14.1818 3.768864 29.410391 -2.871232
2007-05-04 13:49:06 51°17.721 3°0.543 14.1925 3.767517 29.410047 -2.871232
2007-05-04 13:50:06 51°17.62 3°0.29 14.1704 3.76876 29.417498 -2.871232
2007-05-04 13:51:06 51°17.517 3°0.039 14.1816 3.767206 29.401346 -2.871232
2007-05-04 13:52:06 51°17.416 2°59.783 14.1717 3.769486 29.421789 -2.871232
2007-05-04 13:53:06 51°17.317 2°59.522 14.165 3.766895 29.410659 -2.871232
2007-05-04 13:54:06 51°17.217 2°59.26 14.1539 3.767206 29.421368 -2.871232
2007-05-04 13:55:06 51°17.116 2°58.994 14.1923 3.768346 29.433267 -2.871232
2007-05-04 13:56:06 51°17.021 2°58.724 14.1786 3.772076 29.438253 -2.871232
2007-05-04 13:57:06 51°16.923 2°58.455 14.175 3.766066 29.400129 -2.871232
2007-05-04 13:58:06 51°16.827 2°58.18 14.185 3.769693 29.419582 -2.871232
2007-05-04 13:59:06 51°16.731 2°57.901 14.1829 3.766377 29.394822 -2.871232
2007-05-04 14:00:06 51°16.629 2°57.634 14.1918 3.767309 29.395577 -2.871232
2007-05-04 14:01:06 51°16.523 2°57.366 14.2034 3.769589 29.415348 -2.871232
2007-05-04 14:02:06 51°16.416 2°57.102 14.2104 3.771454 29.419516 -2.871232
2007-05-04 14:03:06 51°16.301 2°56.853 14.1987 3.772076 29.430911 -2.871232
2007-05-04 14:04:06 51°16.188 2°56.594 14.2297 3.772076 29.434915 -2.871232
2007-05-04 14:05:06 51°16.071 2°56.344 14.1923 3.773112 29.443235 -2.871232
2007-05-04 14:06:06 51°15.948 2°56.105 14.1873 3.773009 29.451019 -2.871232
2007-05-04 14:07:06 51°15.822 2°55.87 14.2014 3.771351 29.431961 -2.871232
2007-05-04 14:08:06 51°15.69 2°55.642 14.2045 3.770833 29.414126 -2.871232
2007-05-04 14:09:06 51°15.535 2°55.452 14.2049 3.77218 29.433144 -2.871232
2007-05-04 14:10:06 51°15.386 2°55.27 14.2466 3.770522 29.407431 -2.871232
2007-05-04 14:11:06 51°15.232 2°55.092 14.2867 3.770936 29.389709 -2.871232
2007-05-04 14:12:06 51°15.078 2°54.929 14.2951 3.764821 29.304904 -2.871232
2007-05-04 14:13:06 51°14.904 2°54.813 14.3039 3.760676 29.259786 -2.871232
2007-05-04 14:14:06 51°14.714 2°54.722 14.2868 3.764925 29.294536 -2.871232
2007-05-04 14:15:06 51°14.528 2°54.827 14.267 3.767412 29.330632 -2.871232
2007-05-04 14:16:06 51°14.371 2°55.058 14.2603 3.779018 29.44973 -2.871232
2007-05-04 14:17:06 51°14.233 2°55.304 14.4623 3.77477 29.401616 -2.871232
2007-05-04 14:18:06 51°14.078 2°55.455 14.6039 3.706172 28.638279 -2.871232
2007-05-04 14:19:06 51°13.943 2°55.547 14.7877 3.658201 28.118409 -2.871232
2007-05-04 14:20:06 51°13.85 2°55.617 14.7261 3.608371 27.581502 -2.871232
2007-05-04 14:21:06 51°13.776 2°55.68 14.8624 3.567872 27.301652 -2.871232
2007-05-04 14:22:06 51°13.72 2°55.76 14.9268 3.482738 26.463765 -2.871232
2007-05-04 14:23:06 51°13.675 2°55.855 15.0612 3.438313 26.051476 -2.871232
2007-05-04 14:24:06 51°13.633 2°55.951 14.9771 3.413358 25.781702 -2.871232
2007-05-04 14:25:06 51°13.615 2°56.042 15.2455 3.483668 26.374394 -2.871232
2007-05-04 14:26:06 51°13.604 2°56.091 15.4575 3.443589 25.820598 -2.871232
2007-05-04 14:27:06 51°13.6 2°56.099 15.4683 1.361366 9.320469 -2.871232
2007-05-04 14:28:06 51°13.601 2°56.102 15.5186 0.484016 2.764237 -2.871232